sensor_id;sensor_type;location;lat;lon;timestamp;pressure;altitude;pressure_sealevel;temperature;humidity
20755;BME280;26385;48.470;7.938;2022-08-11T00:02:31;100138.81;;;24.59;34.41
20755;BME280;26385;48.470;7.938;2022-08-11T00:05:02;100133.72;;;24.53;34.66
20755;BME280;26385;48.470;7.938;2022-08-11T00:07:28;100139.22;;;24.48;34.62
20755;BME280;26385;48.470;7.938;2022-08-11T00:09:54;100140.56;;;24.35;35.20
20755;BME280;26385;48.470;7.938;2022-08-11T00:12:20;100140.22;;;24.44;35.37
20755;BME280;26385;48.470;7.938;2022-08-11T00:14:54;100136.59;;;24.47;35.53
20755;BME280;26385;48.470;7.938;2022-08-11T00:17:26;100144.88;;;24.37;35.29
20755;BME280;26385;48.470;7.938;2022-08-11T00:19:59;100142.34;;;24.34;35.53
20755;BME280;26385;48.470;7.938;2022-08-11T00:22:26;100145.72;;;24.39;35.51
20755;BME280;26385;48.470;7.938;2022-08-11T00:24:52;100145.97;;;24.32;35.73
20755;BME280;26385;48.470;7.938;2022-08-11T00:27:18;100138.91;;;24.32;35.73
20755;BME280;26385;48.470;7.938;2022-08-11T00:29:53;100143.38;;;24.30;35.89
20755;BME280;26385;48.470;7.938;2022-08-11T00:32:19;100141.72;;;24.26;35.88
20755;BME280;26385;48.470;7.938;2022-08-11T00:34:46;100136.69;;;24.19;35.80
20755;BME280;26385;48.470;7.938;2022-08-11T00:37:17;100143.78;;;24.18;35.79
20755;BME280;26385;48.470;7.938;2022-08-11T00:39:47;100144.03;;;24.10;35.71
20755;BME280;26385;48.470;7.938;2022-08-11T00:45:30;100142.31;;;24.09;35.68
20755;BME280;26385;48.470;7.938;2022-08-11T00:48:14;100140.59;;;24.08;35.79
20755;BME280;26385;48.470;7.938;2022-08-11T00:59:05;100147.88;;;24.02;36.27
20755;BME280;26385;48.470;7.938;2022-08-11T01:07:30;100147.00;;;23.76;36.78
20755;BME280;26385;48.470;7.938;2022-08-11T01:10:13;100145.06;;;23.81;36.50
20755;BME280;26385;48.470;7.938;2022-08-11T01:12:55;100158.38;;;23.78;36.66
20755;BME280;26385;48.470;7.938;2022-08-11T01:38:19;100148.84;;;23.74;36.47
20755;BME280;26385;48.470;7.938;2022-08-11T01:41:13;100142.00;;;23.67;36.81
20755;BME280;26385;48.470;7.938;2022-08-11T01:44:37;100135.59;;;23.74;36.62
20755;BME280;26385;48.470;7.938;2022-08-11T01:47:30;100138.84;;;23.82;36.48
20755;BME280;26385;48.470;7.938;2022-08-11T01:50:45;100147.84;;;23.77;36.83
20755;BME280;26385;48.470;7.938;2022-08-11T01:53:45;100160.41;;;23.70;36.71
20755;BME280;26385;48.470;7.938;2022-08-11T01:59:12;100153.34;;;23.71;36.76
20755;BME280;26385;48.470;7.938;2022-08-11T02:07:13;100159.72;;;23.65;36.78
20755;BME280;26385;48.470;7.938;2022-08-11T02:12:37;100150.00;;;23.66;37.05
20755;BME280;26385;48.470;7.938;2022-08-11T02:18:37;100159.13;;;23.55;37.39
20755;BME280;26385;48.470;7.938;2022-08-11T02:21:26;100152.00;;;23.57;37.37
20755;BME280;26385;48.470;7.938;2022-08-11T02:24:32;100153.72;;;23.60;37.10
20755;BME280;26385;48.470;7.938;2022-08-11T02:27:17;100150.09;;;23.63;37.22
20755;BME280;26385;48.470;7.938;2022-08-11T02:32:31;100146.31;;;23.71;36.92
20755;BME280;26385;48.470;7.938;2022-08-11T02:38:36;100140.47;;;23.60;37.18
20755;BME280;26385;48.470;7.938;2022-08-11T02:44:33;100136.84;;;23.64;37.14
20755;BME280;26385;48.470;7.938;2022-08-11T02:47:06;100144.47;;;23.73;36.88
20755;BME280;26385;48.470;7.938;2022-08-11T02:49:41;100142.75;;;23.72;36.85
20755;BME280;26385;48.470;7.938;2022-08-11T02:52:30;100143.78;;;23.67;36.87
20755;BME280;26385;48.470;7.938;2022-08-11T02:57:58;100148.28;;;23.65;37.06
20755;BME280;26385;48.470;7.938;2022-08-11T03:00:29;100141.00;;;23.71;36.70
20755;BME280;26385;48.470;7.938;2022-08-11T03:05:46;100146.25;;;23.73;36.81
20755;BME280;26385;48.470;7.938;2022-08-11T03:08:43;100141.25;;;23.64;36.87
20755;BME280;26385;48.470;7.938;2022-08-11T03:11:25;100145.78;;;23.60;37.05
20755;BME280;26385;48.470;7.938;2022-08-11T03:14:57;100147.63;;;23.56;37.13
20755;BME280;26385;48.470;7.938;2022-08-11T03:18:02;100148.06;;;23.71;36.87
20755;BME280;26385;48.470;7.938;2022-08-11T03:23:16;100147.50;;;23.61;36.96
20755;BME280;26385;48.470;7.938;2022-08-11T03:28:33;100145.84;;;23.57;37.11
20755;BME280;26385;48.470;7.938;2022-08-11T03:31:22;100148.41;;;23.60;36.94
20755;BME280;26385;48.470;7.938;2022-08-11T03:33:53;100145.69;;;23.63;37.07
20755;BME280;26385;48.470;7.938;2022-08-11T03:36:58;100150.28;;;23.56;37.17
20755;BME280;26385;48.470;7.938;2022-08-11T03:39:47;100146.47;;;23.37;38.78
20755;BME280;26385;48.470;7.938;2022-08-11T03:45:25;100153.38;;;23.15;39.04
20755;BME280;26385;48.470;7.938;2022-08-11T03:48:53;100148.94;;;22.87;40.17
20755;BME280;26385;48.470;7.938;2022-08-11T03:51:08;100148.13;;;22.54;40.95
20755;BME280;26385;48.470;7.938;2022-08-11T03:54:15;100149.84;;;22.55;40.94
20755;BME280;26385;48.470;7.938;2022-08-11T04:00:14;100158.50;;;22.29;41.18
20755;BME280;26385;48.470;7.938;2022-08-11T04:08:59;100156.31;;;22.11;41.88
20755;BME280;26385;48.470;7.938;2022-08-11T04:11:45;100155.63;;;22.04;42.03
20755;BME280;26385;48.470;7.938;2022-08-11T04:20:43;100165.03;;;21.80;42.54
20755;BME280;26385;48.470;7.938;2022-08-11T04:26:47;100171.97;;;21.83;42.93
20755;BME280;26385;48.470;7.938;2022-08-11T04:32:27;100168.19;;;21.95;42.79
20755;BME280;26385;48.470;7.938;2022-08-11T04:35:31;100169.50;;;22.11;42.25
20755;BME280;26385;48.470;7.938;2022-08-11T04:38:33;100165.03;;;22.14;42.24
20755;BME280;26385;48.470;7.938;2022-08-11T04:41:28;100165.81;;;22.18;42.31
20755;BME280;26385;48.470;7.938;2022-08-11T04:50:29;100164.34;;;22.40;42.01
20755;BME280;26385;48.470;7.938;2022-08-11T04:53:33;100166.66;;;22.20;42.67
20755;BME280;26385;48.470;7.938;2022-08-11T04:56:25;100165.41;;;21.99;43.63
20755;BME280;26385;48.470;7.938;2022-08-11T04:59:42;100169.91;;;21.96;43.53
20755;BME280;26385;48.470;7.938;2022-08-11T05:09:07;100183.88;;;21.63;44.66
20755;BME280;26385;48.470;7.938;2022-08-11T05:14:49;100184.91;;;21.58;45.25
20755;BME280;26385;48.470;7.938;2022-08-11T05:20:49;100190.75;;;21.69;45.15
20755;BME280;26385;48.470;7.938;2022-08-11T05:23:34;100189.94;;;21.67;45.14
20755;BME280;26385;48.470;7.938;2022-08-11T05:26:22;100189.13;;;21.65;45.40
20755;BME280;26385;48.470;7.938;2022-08-11T05:29:25;100189.84;;;21.72;45.48
20755;BME280;26385;48.470;7.938;2022-08-11T05:32:12;100192.22;;;21.82;45.27
20755;BME280;26385;48.470;7.938;2022-08-11T05:35:03;100194.75;;;21.87;45.37
20755;BME280;26385;48.470;7.938;2022-08-11T05:40:11;100191.97;;;21.91;45.29
20755;BME280;26385;48.470;7.938;2022-08-11T05:43:02;100192.59;;;22.01;45.30
20755;BME280;26385;48.470;7.938;2022-08-11T05:46:04;100197.81;;;22.04;45.14
20755;BME280;26385;48.470;7.938;2022-08-11T05:48:50;100190.34;;;22.22;44.89
20755;BME280;26385;48.470;7.938;2022-08-11T05:51:36;100198.03;;;22.31;44.54
20755;BME280;26385;48.470;7.938;2022-08-11T05:54:22;100186.72;;;22.26;44.78
20755;BME280;26385;48.470;7.938;2022-08-11T05:57:06;100190.69;;;22.42;44.58
20755;BME280;26385;48.470;7.938;2022-08-11T05:59:32;100185.78;;;22.59;44.61
20755;BME280;26385;48.470;7.938;2022-08-11T06:02:03;100185.41;;;22.73;44.34
20755;BME280;26385;48.470;7.938;2022-08-11T06:04:30;100187.72;;;22.85;44.10
20755;BME280;26385;48.470;7.938;2022-08-11T06:07:05;100190.66;;;23.06;43.65
20755;BME280;26385;48.470;7.938;2022-08-11T06:12:29;100175.84;;;23.28;43.43
20755;BME280;26385;48.470;7.938;2022-08-11T06:15:09;100169.91;;;23.49;42.76
20755;BME280;26385;48.470;7.938;2022-08-11T06:17:42;100169.22;;;23.71;42.51
20755;BME280;26385;48.470;7.938;2022-08-11T06:20:30;100172.88;;;23.93;42.60
20755;BME280;26385;48.470;7.938;2022-08-11T06:23:04;100172.25;;;24.11;42.01
20755;BME280;26385;48.470;7.938;2022-08-11T06:25:31;100167.34;;;24.26;41.82
20755;BME280;26385;48.470;7.938;2022-08-11T06:28:01;100165.84;;;24.43;41.10
20755;BME280;26385;48.470;7.938;2022-08-11T06:30:39;100168.66;;;24.62;41.13
20755;BME280;26385;48.470;7.938;2022-08-11T06:33:10;100162.94;;;24.75;40.60
20755;BME280;26385;48.470;7.938;2022-08-11T06:36:14;100171.41;;;24.84;40.33
20755;BME280;26385;48.470;7.938;2022-08-11T06:39:05;100175.94;;;25.06;40.12
20755;BME280;26385;48.470;7.938;2022-08-11T06:41:48;100172.47;;;25.25;40.08
20755;BME280;26385;48.470;7.938;2022-08-11T06:44:22;100176.41;;;25.37;39.45
20755;BME280;26385;48.470;7.938;2022-08-11T06:46:51;100168.00;;;25.49;39.80
20755;BME280;26385;48.470;7.938;2022-08-11T06:49:22;100164.03;;;25.81;40.25
20755;BME280;26385;48.470;7.938;2022-08-11T06:52:09;100167.94;;;26.14;39.90
20755;BME280;26385;48.470;7.938;2022-08-11T06:54:40;100160.06;;;26.32;38.94
20755;BME280;26385;48.470;7.938;2022-08-11T06:57:12;100166.50;;;26.47;38.07
20755;BME280;26385;48.470;7.938;2022-08-11T06:59:57;100163.50;;;26.55;37.26
20755;BME280;26385;48.470;7.938;2022-08-11T07:02:52;100163.94;;;26.64;37.66
20755;BME280;26385;48.470;7.938;2022-08-11T07:05:28;100161.69;;;26.76;36.89
20755;BME280;26385;48.470;7.938;2022-08-11T07:14:29;100166.75;;;27.19;36.75
20755;BME280;26385;48.470;7.938;2022-08-11T07:17:19;100156.59;;;27.28;36.07
20755;BME280;26385;48.470;7.938;2022-08-11T07:19:51;100162.13;;;27.42;36.37
20755;BME280;26385;48.470;7.938;2022-08-11T07:22:36;100164.16;;;27.54;35.71
20755;BME280;26385;48.470;7.938;2022-08-11T07:25:21;100160.00;;;27.66;35.65
20755;BME280;26385;48.470;7.938;2022-08-11T07:28:10;100160.09;;;27.64;36.04
20755;BME280;26385;48.470;7.938;2022-08-11T07:31:02;100158.41;;;27.81;35.81
20755;BME280;26385;48.470;7.938;2022-08-11T07:33:45;100155.94;;;27.95;35.56
20755;BME280;26385;48.470;7.938;2022-08-11T07:36:12;100154.97;;;28.13;35.09
20755;BME280;26385;48.470;7.938;2022-08-11T07:38:41;100148.31;;;28.22;35.04
20755;BME280;26385;48.470;7.938;2022-08-11T07:41:13;100157.56;;;28.32;34.91
20755;BME280;26385;48.470;7.938;2022-08-11T07:43:40;100154.28;;;28.44;34.89
20755;BME280;26385;48.470;7.938;2022-08-11T07:46:06;100151.38;;;28.65;34.54
20755;BME280;26385;48.470;7.938;2022-08-11T07:48:51;100146.25;;;28.77;34.24
20755;BME280;26385;48.470;7.938;2022-08-11T07:51:36;100141.91;;;28.92;33.64
20755;BME280;26385;48.470;7.938;2022-08-11T07:54:21;100141.47;;;29.00;33.62
20755;BME280;26385;48.470;7.938;2022-08-11T07:56:47;100142.50;;;29.13;33.53
20755;BME280;26385;48.470;7.938;2022-08-11T07:59:13;100144.03;;;29.17;33.24
20755;BME280;26385;48.470;7.938;2022-08-11T08:01:58;100136.84;;;29.35;33.23
20755;BME280;26385;48.470;7.938;2022-08-11T08:04:44;100140.59;;;29.47;32.70
20755;BME280;26385;48.470;7.938;2022-08-11T08:07:29;100141.44;;;29.63;32.13
20755;BME280;26385;48.470;7.938;2022-08-11T08:10:16;100130.22;;;29.72;32.00
20755;BME280;26385;48.470;7.938;2022-08-11T08:13:01;100129.59;;;29.83;31.83
20755;BME280;26385;48.470;7.938;2022-08-11T08:15:46;100134.31;;;29.93;31.61
20755;BME280;26385;48.470;7.938;2022-08-11T08:18:33;100129.75;;;30.10;31.17
20755;BME280;26385;48.470;7.938;2022-08-11T08:21:00;100124.25;;;30.13;30.85
20755;BME280;26385;48.470;7.938;2022-08-11T08:23:37;100110.69;;;30.16;30.60
20755;BME280;26385;48.470;7.938;2022-08-11T08:26:05;100113.66;;;30.11;30.46
20755;BME280;26385;48.470;7.938;2022-08-11T08:28:54;100123.00;;;30.18;30.20
20755;BME280;26385;48.470;7.938;2022-08-11T08:31:40;100111.75;;;30.13;30.15
20755;BME280;26385;48.470;7.938;2022-08-11T08:34:06;100109.38;;;30.23;30.14
20755;BME280;26385;48.470;7.938;2022-08-11T08:36:33;100111.66;;;30.43;29.76
20755;BME280;26385;48.470;7.938;2022-08-11T08:38:58;100116.03;;;30.59;30.06
20755;BME280;26385;48.470;7.938;2022-08-11T08:41:28;100112.16;;;30.78;29.49
20755;BME280;26385;48.470;7.938;2022-08-11T08:43:57;100119.38;;;30.91;29.40
20755;BME280;26385;48.470;7.938;2022-08-11T08:46:29;100100.72;;;31.03;28.58
20755;BME280;26385;48.470;7.938;2022-08-11T08:49:00;100106.44;;;31.12;26.95
20755;BME280;26385;48.470;7.938;2022-08-11T08:51:27;100099.16;;;31.28;26.35
20755;BME280;26385;48.470;7.938;2022-08-11T08:54:05;100107.09;;;31.29;24.57
20755;BME280;26385;48.470;7.938;2022-08-11T08:56:32;100100.25;;;31.38;24.01
20755;BME280;26385;48.470;7.938;2022-08-11T08:59:00;100102.78;;;31.54;23.81
20755;BME280;26385;48.470;7.938;2022-08-11T09:01:34;100099.44;;;31.50;23.24
20755;BME280;26385;48.470;7.938;2022-08-11T09:04:03;100107.06;;;31.56;23.56
20755;BME280;26385;48.470;7.938;2022-08-11T09:06:31;100108.13;;;31.54;22.49
20755;BME280;26385;48.470;7.938;2022-08-11T09:08:57;100101.19;;;31.64;23.30
20755;BME280;26385;48.470;7.938;2022-08-11T09:11:24;100105.19;;;31.84;22.89
20755;BME280;26385;48.470;7.938;2022-08-11T09:14:09;100098.06;;;31.97;22.96
20755;BME280;26385;48.470;7.938;2022-08-11T09:16:35;100104.25;;;32.10;22.83
20755;BME280;26385;48.470;7.938;2022-08-11T09:19:03;100079.19;;;32.24;22.57
20755;BME280;26385;48.470;7.938;2022-08-11T09:21:29;100094.94;;;32.16;22.64
20755;BME280;26385;48.470;7.938;2022-08-11T09:23:57;100095.03;;;32.27;23.03
20755;BME280;26385;48.470;7.938;2022-08-11T09:26:42;100091.38;;;32.28;22.95
20755;BME280;26385;48.470;7.938;2022-08-11T09:29:29;100094.66;;;32.46;22.70
20755;BME280;26385;48.470;7.938;2022-08-11T09:31:57;100086.13;;;32.65;22.74
20755;BME280;26385;48.470;7.938;2022-08-11T09:34:23;100095.44;;;32.85;21.63
20755;BME280;26385;48.470;7.938;2022-08-11T09:36:50;100095.78;;;33.04;21.95
20755;BME280;26385;48.470;7.938;2022-08-11T09:39:36;100093.75;;;33.08;21.41
20755;BME280;26385;48.470;7.938;2022-08-11T09:42:38;100090.22;;;33.07;21.21
20755;BME280;26385;48.470;7.938;2022-08-11T09:45:23;100093.31;;;33.14;21.09
20755;BME280;26385;48.470;7.938;2022-08-11T09:47:48;100088.38;;;33.31;20.94
20755;BME280;26385;48.470;7.938;2022-08-11T09:50:15;100088.97;;;33.48;20.51
20755;BME280;26385;48.470;7.938;2022-08-11T09:52:42;100083.63;;;33.59;20.51
20755;BME280;26385;48.470;7.938;2022-08-11T09:55:09;100077.97;;;33.51;20.29
20755;BME280;26385;48.470;7.938;2022-08-11T09:57:45;100078.94;;;33.39;20.57
20755;BME280;26385;48.470;7.938;2022-08-11T10:00:35;100080.75;;;33.38;19.92
20755;BME280;26385;48.470;7.938;2022-08-11T10:03:03;100066.00;;;32.83;20.43
20755;BME280;26385;48.470;7.938;2022-08-11T10:05:31;100067.47;;;33.24;20.65
20755;BME280;26385;48.470;7.938;2022-08-11T10:08:17;100070.00;;;33.73;20.38
20755;BME280;26385;48.470;7.938;2022-08-11T10:10:44;100066.91;;;33.91;20.08
20755;BME280;26385;48.470;7.938;2022-08-11T10:13:16;100063.13;;;34.15;20.17
20755;BME280;26385;48.470;7.938;2022-08-11T10:15:43;100053.09;;;34.29;19.85
20755;BME280;26385;48.470;7.938;2022-08-11T10:18:18;100058.00;;;34.24;19.78
20755;BME280;26385;48.470;7.938;2022-08-11T10:21:13;100066.06;;;34.35;18.96
20755;BME280;26385;48.470;7.938;2022-08-11T10:23:39;100058.00;;;34.35;19.32
20755;BME280;26385;48.470;7.938;2022-08-11T10:26:27;100074.28;;;33.87;19.46
20755;BME280;26385;48.470;7.938;2022-08-11T10:29:13;100055.41;;;34.22;19.42
20755;BME280;26385;48.470;7.938;2022-08-11T10:31:57;100057.41;;;34.54;18.92
20755;BME280;26385;48.470;7.938;2022-08-11T10:34:44;100054.81;;;34.75;18.73
20755;BME280;26385;48.470;7.938;2022-08-11T10:37:11;100052.72;;;34.78;18.80
20755;BME280;26385;48.470;7.938;2022-08-11T10:39:38;100046.44;;;34.89;19.02
20755;BME280;26385;48.470;7.938;2022-08-11T10:42:04;100041.06;;;35.00;18.83
20755;BME280;26385;48.470;7.938;2022-08-11T10:44:53;100053.72;;;35.20;18.48
20755;BME280;26385;48.470;7.938;2022-08-11T10:47:20;100040.00;;;35.23;18.36
20755;BME280;26385;48.470;7.938;2022-08-11T10:50:10;100037.84;;;35.38;17.81
20755;BME280;26385;48.470;7.938;2022-08-11T10:52:56;100029.03;;;35.36;17.68
20755;BME280;26385;48.470;7.938;2022-08-11T10:55:42;100042.03;;;35.42;18.04
20755;BME280;26385;48.470;7.938;2022-08-11T10:58:27;100029.75;;;35.38;18.02
20755;BME280;26385;48.470;7.938;2022-08-11T11:01:12;100027.50;;;35.54;18.01
20755;BME280;26385;48.470;7.938;2022-08-11T11:03:39;100023.91;;;35.65;17.99
20755;BME280;26385;48.470;7.938;2022-08-11T11:06:22;100015.72;;;35.76;17.89
20755;BME280;26385;48.470;7.938;2022-08-11T11:08:52;100006.44;;;35.90;17.90
20755;BME280;26385;48.470;7.938;2022-08-11T11:11:23;100010.91;;;36.01;17.87
20755;BME280;26385;48.470;7.938;2022-08-11T11:14:10;100015.19;;;36.03;17.92
20755;BME280;26385;48.470;7.938;2022-08-11T11:16:57;100010.44;;;36.17;18.16
20755;BME280;26385;48.470;7.938;2022-08-11T11:19:38;100004.13;;;36.37;18.32
20755;BME280;26385;48.470;7.938;2022-08-11T11:22:05;100004.38;;;36.34;17.71
20755;BME280;26385;48.470;7.938;2022-08-11T11:24:59;100013.22;;;36.36;17.25
20755;BME280;26385;48.470;7.938;2022-08-11T11:30:33;100004.63;;;36.31;18.06
20755;BME280;26385;48.470;7.938;2022-08-11T11:35:46;100000.69;;;36.35;17.35
20755;BME280;26385;48.470;7.938;2022-08-11T11:38:14;99997.72;;;36.38;16.63
20755;BME280;26385;48.470;7.938;2022-08-11T11:40:40;99990.28;;;36.30;16.64
20755;BME280;26385;48.470;7.938;2022-08-11T11:43:06;99985.50;;;36.34;16.80
20755;BME280;26385;48.470;7.938;2022-08-11T11:45:32;99992.53;;;36.56;16.85
20755;BME280;26385;48.470;7.938;2022-08-11T11:47:58;99986.59;;;36.72;17.13
20755;BME280;26385;48.470;7.938;2022-08-11T11:50:32;99983.31;;;36.78;17.44
20755;BME280;26385;48.470;7.938;2022-08-11T11:53:00;99971.69;;;36.77;17.51
20755;BME280;26385;48.470;7.938;2022-08-11T11:55:28;99983.72;;;36.73;17.53
20755;BME280;26385;48.470;7.938;2022-08-11T11:57:54;99983.47;;;36.67;16.79
20755;BME280;26385;48.470;7.938;2022-08-11T12:00:40;99971.09;;;36.74;16.50
20755;BME280;26385;48.470;7.938;2022-08-11T12:03:27;99972.56;;;36.87;17.02
20755;BME280;26385;48.470;7.938;2022-08-11T12:05:53;99963.47;;;36.98;16.65
20755;BME280;26385;48.470;7.938;2022-08-11T12:08:20;99952.66;;;36.98;17.48
20755;BME280;26385;48.470;7.938;2022-08-11T12:10:51;99957.66;;;36.93;17.36
20755;BME280;26385;48.470;7.938;2022-08-11T12:13:39;99967.00;;;36.89;18.14
20755;BME280;26385;48.470;7.938;2022-08-11T12:16:07;99973.25;;;36.99;17.39
20755;BME280;26385;48.470;7.938;2022-08-11T12:18:34;99965.91;;;37.01;17.19
20755;BME280;26385;48.470;7.938;2022-08-11T12:21:01;99971.00;;;37.14;16.73
20755;BME280;26385;48.470;7.938;2022-08-11T12:23:27;99964.31;;;36.99;17.13
20755;BME280;26385;48.470;7.938;2022-08-11T12:26:13;99957.66;;;36.93;17.15
20755;BME280;26385;48.470;7.938;2022-08-11T12:28:59;99951.97;;;36.96;16.85
20755;BME280;26385;48.470;7.938;2022-08-11T12:31:27;99942.00;;;36.97;17.19
20755;BME280;26385;48.470;7.938;2022-08-11T12:34:05;99947.69;;;37.03;16.97
20755;BME280;26385;48.470;7.938;2022-08-11T12:36:44;99941.44;;;37.12;17.36
20755;BME280;26385;48.470;7.938;2022-08-11T12:39:12;99937.00;;;37.21;16.93
20755;BME280;26385;48.470;7.938;2022-08-11T12:41:43;99931.31;;;37.24;17.48
20755;BME280;26385;48.470;7.938;2022-08-11T12:44:28;99922.66;;;37.11;17.19
20755;BME280;26385;48.470;7.938;2022-08-11T12:47:16;99919.97;;;37.11;17.22
20755;BME280;26385;48.470;7.938;2022-08-11T12:49:46;99922.38;;;37.14;16.70
20755;BME280;26385;48.470;7.938;2022-08-11T12:52:43;99925.50;;;37.19;17.01
20755;BME280;26385;48.470;7.938;2022-08-11T12:55:12;99924.19;;;37.23;16.74
20755;BME280;26385;48.470;7.938;2022-08-11T12:57:59;99912.84;;;37.19;17.10
20755;BME280;26385;48.470;7.938;2022-08-11T13:00:40;99911.53;;;37.24;17.24
20755;BME280;26385;48.470;7.938;2022-08-11T13:03:24;99910.53;;;37.25;16.70
20755;BME280;26385;48.470;7.938;2022-08-11T13:06:09;99902.88;;;37.20;17.22
20755;BME280;26385;48.470;7.938;2022-08-11T13:08:37;99901.88;;;37.31;17.29
20755;BME280;26385;48.470;7.938;2022-08-11T13:11:03;99892.34;;;37.27;18.15
20755;BME280;26385;48.470;7.938;2022-08-11T13:13:49;99890.34;;;37.29;18.82
20755;BME280;26385;48.470;7.938;2022-08-11T13:16:16;99885.25;;;37.16;18.68
20755;BME280;26385;48.470;7.938;2022-08-11T13:18:42;99892.84;;;36.93;17.90
20755;BME280;26385;48.470;7.938;2022-08-11T13:21:11;99883.84;;;36.73;18.42
20755;BME280;26385;48.470;7.938;2022-08-11T13:23:39;99885.13;;;36.79;18.30
20755;BME280;26385;48.470;7.938;2022-08-11T13:26:05;99890.84;;;36.76;17.45
20755;BME280;26385;48.470;7.938;2022-08-11T13:28:34;99886.16;;;36.58;17.75
20755;BME280;26385;48.470;7.938;2022-08-11T13:31:00;99884.16;;;36.51;17.76
20755;BME280;26385;48.470;7.938;2022-08-11T13:33:41;99878.16;;;36.57;17.39
20755;BME280;26385;48.470;7.938;2022-08-11T13:36:07;99877.31;;;36.66;17.55
20755;BME280;26385;48.470;7.938;2022-08-11T13:38:33;99881.75;;;36.77;17.19
20755;BME280;26385;48.470;7.938;2022-08-11T13:41:00;99877.19;;;36.77;17.14
20755;BME280;26385;48.470;7.938;2022-08-11T13:43:26;99874.19;;;36.80;17.41
20755;BME280;26385;48.470;7.938;2022-08-11T13:45:53;99874.50;;;36.87;17.02
20755;BME280;26385;48.470;7.938;2022-08-11T13:48:39;99874.34;;;36.88;17.21
20755;BME280;26385;48.470;7.938;2022-08-11T13:51:07;99868.09;;;36.78;16.40
20755;BME280;26385;48.470;7.938;2022-08-11T13:53:52;99869.63;;;36.81;17.07
20755;BME280;26385;48.470;7.938;2022-08-11T13:56:21;99861.38;;;36.82;16.56
20755;BME280;26385;48.470;7.938;2022-08-11T13:58:46;99852.88;;;36.48;16.14
20755;BME280;26385;48.470;7.938;2022-08-11T14:01:12;99854.03;;;36.65;16.83
20755;BME280;26385;48.470;7.938;2022-08-11T14:03:39;99850.63;;;36.53;16.22
20755;BME280;26385;48.470;7.938;2022-08-11T14:06:07;99850.06;;;36.59;16.11
20755;BME280;26385;48.470;7.938;2022-08-11T14:08:36;99852.31;;;36.74;16.34
20755;BME280;26385;48.470;7.938;2022-08-11T14:11:04;99842.41;;;36.84;15.98
20755;BME280;26385;48.470;7.938;2022-08-11T14:13:50;99846.09;;;36.92;16.58
20755;BME280;26385;48.470;7.938;2022-08-11T14:16:28;99835.28;;;36.54;16.02
20755;BME280;26385;48.470;7.938;2022-08-11T14:19:03;99835.84;;;36.67;15.64
20755;BME280;26385;48.470;7.938;2022-08-11T14:21:35;99833.88;;;36.59;16.24
20755;BME280;26385;48.470;7.938;2022-08-11T14:24:20;99827.34;;;36.52;16.06
20755;BME280;26385;48.470;7.938;2022-08-11T14:26:47;99834.56;;;36.32;15.96
20755;BME280;26385;48.470;7.938;2022-08-11T14:29:16;99826.16;;;36.26;16.19
20755;BME280;26385;48.470;7.938;2022-08-11T14:31:46;99827.75;;;36.38;16.68
20755;BME280;26385;48.470;7.938;2022-08-11T14:34:12;99829.28;;;36.31;17.06
20755;BME280;26385;48.470;7.938;2022-08-11T14:36:43;99824.88;;;36.30;16.74
20755;BME280;26385;48.470;7.938;2022-08-11T14:39:13;99831.13;;;36.30;17.14
20755;BME280;26385;48.470;7.938;2022-08-11T14:41:46;99823.78;;;36.32;16.91
20755;BME280;26385;48.470;7.938;2022-08-11T14:44:33;99813.69;;;36.25;16.34
20755;BME280;26385;48.470;7.938;2022-08-11T14:47:19;99809.00;;;36.27;16.78
20755;BME280;26385;48.470;7.938;2022-08-11T14:49:45;99813.94;;;36.22;17.70
20755;BME280;26385;48.470;7.938;2022-08-11T14:52:14;99810.09;;;36.15;17.22
20755;BME280;26385;48.470;7.938;2022-08-11T14:54:44;99809.84;;;36.18;17.55
20755;BME280;26385;48.470;7.938;2022-08-11T14:57:31;99810.53;;;36.00;16.90
20755;BME280;26385;48.470;7.938;2022-08-11T14:59:59;99811.22;;;35.93;17.04
20755;BME280;26385;48.470;7.938;2022-08-11T15:02:26;99809.91;;;35.87;17.28
20755;BME280;26385;48.470;7.938;2022-08-11T15:05:10;99801.78;;;35.68;17.56
20755;BME280;26385;48.470;7.938;2022-08-11T15:07:36;99806.56;;;35.64;17.83
20755;BME280;26385;48.470;7.938;2022-08-11T15:10:04;99800.59;;;35.61;17.56
20755;BME280;26385;48.470;7.938;2022-08-11T15:12:31;99797.22;;;35.59;17.62
20755;BME280;26385;48.470;7.938;2022-08-11T15:14:59;99794.59;;;35.47;17.66
20755;BME280;26385;48.470;7.938;2022-08-11T15:17:44;99797.06;;;35.30;17.46
20755;BME280;26385;48.470;7.938;2022-08-11T15:20:15;99785.69;;;35.16;17.59
20755;BME280;26385;48.470;7.938;2022-08-11T15:23:01;99791.25;;;35.04;18.17
20755;BME280;26385;48.470;7.938;2022-08-11T15:25:49;99791.78;;;34.97;17.89
20755;BME280;26385;48.470;7.938;2022-08-11T15:28:17;99786.22;;;34.89;17.93
20755;BME280;26385;48.470;7.938;2022-08-11T15:31:03;99786.25;;;34.78;18.03
20755;BME280;26385;48.470;7.938;2022-08-11T15:33:51;99785.75;;;34.63;17.77
20755;BME280;26385;48.470;7.938;2022-08-11T15:36:36;99779.72;;;34.50;17.76
20755;BME280;26385;48.470;7.938;2022-08-11T15:39:24;99769.09;;;34.37;18.19
20755;BME280;26385;48.470;7.938;2022-08-11T15:42:14;99768.44;;;34.24;17.95
20755;BME280;26385;48.470;7.938;2022-08-11T15:45:03;99768.09;;;34.18;18.40
20755;BME280;26385;48.470;7.938;2022-08-11T15:47:54;99779.31;;;33.91;18.42
20755;BME280;26385;48.470;7.938;2022-08-11T15:50:26;99771.38;;;33.89;18.73
20755;BME280;26385;48.470;7.938;2022-08-11T15:53:01;99775.88;;;33.77;18.69
20755;BME280;26385;48.470;7.938;2022-08-11T15:55:28;99763.22;;;33.68;19.00
20755;BME280;26385;48.470;7.938;2022-08-11T15:57:58;99768.09;;;33.63;18.87
20755;BME280;26385;48.470;7.938;2022-08-11T16:00:44;99779.22;;;33.58;19.26
20755;BME280;26385;48.470;7.938;2022-08-11T16:03:31;99769.69;;;33.54;19.58
20755;BME280;26385;48.470;7.938;2022-08-11T16:06:18;99767.25;;;33.51;19.37